Terminal Aerodrome Forecast
Issued by NWS Topeka, KS

Home | Current Version | Previous Version | Text Only | Print | Product List | Glossary Off
Versions: 1 2 3 4 5 6 7 8 9 10 11 12 13

000
FTUS43 KTOP 181700 RRA
TAFTOP
TAF
KTOP 181742Z 1818/1918 22009KT P6SM FEW200
     FM190200 23009KT P6SM BKN120 WS020/26044KT
     FM190600 28009KT P6SM SCT035 BKN100=

USA.gov is the U.S. government's official web portal to all federal, state and local government web resources and services.